sensor_id;sensor_type;location;lat;lon;timestamp;P1;durP1;ratioP1;P2;durP2;ratioP2
59790;SDS011;47431;51.640;5.554;2023-12-20T00:01:26;67.75;;;23.73;;
59790;SDS011;47431;51.640;5.554;2023-12-20T00:03:51;50.47;;;19.90;;
59790;SDS011;47431;51.640;5.554;2023-12-20T00:06:16;58.38;;;21.13;;
59790;SDS011;47431;51.640;5.554;2023-12-20T00:08:42;70.43;;;22.08;;
59790;SDS011;47431;51.640;5.554;2023-12-20T00:11:07;57.22;;;21.05;;
59790;SDS011;47431;51.640;5.554;2023-12-20T00:13:33;60.75;;;22.55;;
59790;SDS011;47431;51.640;5.554;2023-12-20T00:15:58;57.60;;;22.83;;
59790;SDS011;47431;51.640;5.554;2023-12-20T00:18:23;77.05;;;24.80;;
59790;SDS011;47431;51.640;5.554;2023-12-20T00:20:49;50.25;;;19.35;;
59790;SDS011;47431;51.640;5.554;2023-12-20T00:23:14;55.83;;;21.77;;
59790;SDS011;47431;51.640;5.554;2023-12-20T00:25:40;65.85;;;24.98;;
59790;SDS011;47431;51.640;5.554;2023-12-20T00:28:05;54.17;;;22.30;;
59790;SDS011;47431;51.640;5.554;2023-12-20T00:30:31;47.50;;;19.67;;
59790;SDS011;47431;51.640;5.554;2023-12-20T00:32:56;43.20;;;19.92;;
59790;SDS011;47431;51.640;5.554;2023-12-20T00:35:22;49.10;;;18.27;;
59790;SDS011;47431;51.640;5.554;2023-12-20T00:37:47;62.05;;;21.60;;
59790;SDS011;47431;51.640;5.554;2023-12-20T00:40:12;45.38;;;14.18;;
59790;SDS011;47431;51.640;5.554;2023-12-20T00:42:38;50.50;;;14.82;;
59790;SDS011;47431;51.640;5.554;2023-12-20T00:45:03;42.05;;;12.15;;
59790;SDS011;47431;51.640;5.554;2023-12-20T00:47:30;37.47;;;12.13;;
59790;SDS011;47431;51.640;5.554;2023-12-20T00:49:55;36.03;;;11.52;;
59790;SDS011;47431;51.640;5.554;2023-12-20T00:52:21;37.10;;;11.85;;
59790;SDS011;47431;51.640;5.554;2023-12-20T00:54:47;37.83;;;11.25;;
59790;SDS011;47431;51.640;5.554;2023-12-20T00:57:13;37.90;;;10.35;;
59790;SDS011;47431;51.640;5.554;2023-12-20T00:59:38;33.00;;;10.20;;
59790;SDS011;47431;51.640;5.554;2023-12-20T01:02:03;32.67;;;9.90;;
59790;SDS011;47431;51.640;5.554;2023-12-20T01:04:29;35.90;;;9.77;;
59790;SDS011;47431;51.640;5.554;2023-12-20T01:06:54;36.10;;;9.68;;
59790;SDS011;47431;51.640;5.554;2023-12-20T01:09:19;42.25;;;10.30;;
59790;SDS011;47431;51.640;5.554;2023-12-20T01:11:48;40.88;;;11.27;;
59790;SDS011;47431;51.640;5.554;2023-12-20T01:14:14;34.45;;;8.57;;
59790;SDS011;47431;51.640;5.554;2023-12-20T01:16:39;32.05;;;9.10;;
59790;SDS011;47431;51.640;5.554;2023-12-20T01:19:04;36.63;;;10.23;;
59790;SDS011;47431;51.640;5.554;2023-12-20T01:21:30;40.78;;;9.45;;
59790;SDS011;47431;51.640;5.554;2023-12-20T01:23:55;44.50;;;11.23;;
59790;SDS011;47431;51.640;5.554;2023-12-20T01:26:20;38.30;;;11.38;;
59790;SDS011;47431;51.640;5.554;2023-12-20T01:28:46;43.13;;;9.15;;
59790;SDS011;47431;51.640;5.554;2023-12-20T01:31:11;47.90;;;10.15;;
59790;SDS011;47431;51.640;5.554;2023-12-20T01:33:36;33.42;;;8.70;;
59790;SDS011;47431;51.640;5.554;2023-12-20T01:36:02;44.05;;;8.85;;
59790;SDS011;47431;51.640;5.554;2023-12-20T01:38:28;26.27;;;9.68;;
59790;SDS011;47431;51.640;5.554;2023-12-20T01:40:54;31.38;;;9.40;;
59790;SDS011;47431;51.640;5.554;2023-12-20T01:43:19;29.02;;;8.57;;
59790;SDS011;47431;51.640;5.554;2023-12-20T01:45:44;41.80;;;8.80;;
59790;SDS011;47431;51.640;5.554;2023-12-20T01:48:10;30.52;;;8.02;;
59790;SDS011;47431;51.640;5.554;2023-12-20T01:50:36;38.47;;;9.38;;
59790;SDS011;47431;51.640;5.554;2023-12-20T01:53:02;36.25;;;9.63;;
59790;SDS011;47431;51.640;5.554;2023-12-20T01:55:31;31.52;;;8.95;;
59790;SDS011;47431;51.640;5.554;2023-12-20T01:57:58;43.42;;;8.77;;
59790;SDS011;47431;51.640;5.554;2023-12-20T02:00:24;35.45;;;9.63;;
59790;SDS011;47431;51.640;5.554;2023-12-20T02:02:53;33.47;;;9.70;;
59790;SDS011;47431;51.640;5.554;2023-12-20T02:05:20;44.65;;;10.55;;
59790;SDS011;47431;51.640;5.554;2023-12-20T02:07:47;45.15;;;9.75;;
59790;SDS011;47431;51.640;5.554;2023-12-20T02:10:12;29.02;;;8.43;;
59790;SDS011;47431;51.640;5.554;2023-12-20T02:12:38;32.38;;;8.10;;
59790;SDS011;47431;51.640;5.554;2023-12-20T02:15:03;43.60;;;8.40;;
59790;SDS011;47431;51.640;5.554;2023-12-20T02:17:30;37.80;;;7.75;;
59790;SDS011;47431;51.640;5.554;2023-12-20T02:19:56;21.50;;;6.82;;
59790;SDS011;47431;51.640;5.554;2023-12-20T02:22:22;31.17;;;8.70;;
59790;SDS011;47431;51.640;5.554;2023-12-20T02:24:47;37.13;;;12.02;;
59790;SDS011;47431;51.640;5.554;2023-12-20T02:27:12;27.77;;;8.82;;
59790;SDS011;47431;51.640;5.554;2023-12-20T02:29:40;39.25;;;11.02;;
59790;SDS011;47431;51.640;5.554;2023-12-20T02:32:05;48.95;;;10.25;;
59790;SDS011;47431;51.640;5.554;2023-12-20T02:34:30;35.67;;;9.38;;
59790;SDS011;47431;51.640;5.554;2023-12-20T02:36:56;46.20;;;10.88;;
59790;SDS011;47431;51.640;5.554;2023-12-20T02:39:21;46.25;;;12.77;;
59790;SDS011;47431;51.640;5.554;2023-12-20T02:41:47;35.75;;;10.70;;
59790;SDS011;47431;51.640;5.554;2023-12-20T02:44:13;40.47;;;11.75;;
59790;SDS011;47431;51.640;5.554;2023-12-20T02:46:39;43.75;;;11.68;;
59790;SDS011;47431;51.640;5.554;2023-12-20T02:49:04;38.75;;;9.70;;
59790;SDS011;47431;51.640;5.554;2023-12-20T02:51:30;53.15;;;14.23;;
59790;SDS011;47431;51.640;5.554;2023-12-20T02:53:56;35.25;;;11.38;;
59790;SDS011;47431;51.640;5.554;2023-12-20T02:56:21;46.75;;;11.95;;
59790;SDS011;47431;51.640;5.554;2023-12-20T02:58:46;39.63;;;10.40;;
59790;SDS011;47431;51.640;5.554;2023-12-20T03:01:12;42.45;;;12.23;;
59790;SDS011;47431;51.640;5.554;2023-12-20T03:03:37;47.50;;;11.85;;
59790;SDS011;47431;51.640;5.554;2023-12-20T03:06:02;55.33;;;13.05;;
59790;SDS011;47431;51.640;5.554;2023-12-20T03:08:28;48.17;;;12.85;;
59790;SDS011;47431;51.640;5.554;2023-12-20T03:10:53;44.20;;;12.82;;
59790;SDS011;47431;51.640;5.554;2023-12-20T03:13:19;49.45;;;14.40;;
59790;SDS011;47431;51.640;5.554;2023-12-20T03:15:45;46.40;;;14.82;;
59790;SDS011;47431;51.640;5.554;2023-12-20T03:18:10;50.45;;;15.30;;
59790;SDS011;47431;51.640;5.554;2023-12-20T03:20:36;44.30;;;13.20;;
59790;SDS011;47431;51.640;5.554;2023-12-20T03:23:01;52.00;;;13.25;;
59790;SDS011;47431;51.640;5.554;2023-12-20T03:25:27;57.78;;;14.77;;
59790;SDS011;47431;51.640;5.554;2023-12-20T03:27:52;48.47;;;12.40;;
59790;SDS011;47431;51.640;5.554;2023-12-20T03:30:18;47.47;;;14.80;;
59790;SDS011;47431;51.640;5.554;2023-12-20T03:32:44;42.42;;;13.43;;
59790;SDS011;47431;51.640;5.554;2023-12-20T03:35:09;38.75;;;11.88;;
59790;SDS011;47431;51.640;5.554;2023-12-20T03:37:35;57.70;;;15.55;;
59790;SDS011;47431;51.640;5.554;2023-12-20T03:40:01;61.42;;;14.75;;
59790;SDS011;47431;51.640;5.554;2023-12-20T03:42:26;55.25;;;16.52;;
59790;SDS011;47431;51.640;5.554;2023-12-20T03:44:52;45.85;;;13.20;;
59790;SDS011;47431;51.640;5.554;2023-12-20T03:47:17;68.63;;;16.50;;
59790;SDS011;47431;51.640;5.554;2023-12-20T03:49:42;53.42;;;15.70;;
59790;SDS011;47431;51.640;5.554;2023-12-20T03:52:08;57.05;;;16.92;;
59790;SDS011;47431;51.640;5.554;2023-12-20T03:54:34;54.90;;;15.35;;
59790;SDS011;47431;51.640;5.554;2023-12-20T03:57:00;45.88;;;14.50;;
59790;SDS011;47431;51.640;5.554;2023-12-20T03:59:26;44.17;;;15.57;;
59790;SDS011;47431;51.640;5.554;2023-12-20T04:01:51;62.83;;;17.98;;
59790;SDS011;47431;51.640;5.554;2023-12-20T04:04:16;61.15;;;17.00;;
59790;SDS011;47431;51.640;5.554;2023-12-20T04:06:42;78.40;;;14.00;;
59790;SDS011;47431;51.640;5.554;2023-12-20T04:09:08;45.38;;;14.93;;
59790;SDS011;47431;51.640;5.554;2023-12-20T04:11:37;49.42;;;13.38;;
59790;SDS011;47431;51.640;5.554;2023-12-20T04:14:02;58.63;;;13.75;;
59790;SDS011;47431;51.640;5.554;2023-12-20T04:16:29;51.05;;;14.55;;
59790;SDS011;47431;51.640;5.554;2023-12-20T04:18:55;60.83;;;15.27;;
59790;SDS011;47431;51.640;5.554;2023-12-20T04:21:20;44.80;;;13.18;;
59790;SDS011;47431;51.640;5.554;2023-12-20T04:23:46;55.67;;;13.73;;
59790;SDS011;47431;51.640;5.554;2023-12-20T04:26:11;58.72;;;14.18;;
59790;SDS011;47431;51.640;5.554;2023-12-20T04:28:36;58.20;;;12.93;;
59790;SDS011;47431;51.640;5.554;2023-12-20T04:31:02;55.10;;;11.88;;
59790;SDS011;47431;51.640;5.554;2023-12-20T04:33:27;43.97;;;13.52;;
59790;SDS011;47431;51.640;5.554;2023-12-20T04:35:53;44.03;;;13.10;;
59790;SDS011;47431;51.640;5.554;2023-12-20T04:38:18;50.17;;;14.82;;
59790;SDS011;47431;51.640;5.554;2023-12-20T04:40:43;51.60;;;12.75;;
59790;SDS011;47431;51.640;5.554;2023-12-20T04:43:09;46.42;;;12.25;;
59790;SDS011;47431;51.640;5.554;2023-12-20T04:45:34;40.80;;;11.90;;
59790;SDS011;47431;51.640;5.554;2023-12-20T04:48:00;55.95;;;13.93;;
59790;SDS011;47431;51.640;5.554;2023-12-20T04:50:27;48.83;;;11.40;;
59790;SDS011;47431;51.640;5.554;2023-12-20T04:52:52;56.97;;;12.93;;
59790;SDS011;47431;51.640;5.554;2023-12-20T04:55:18;46.70;;;13.43;;
59790;SDS011;47431;51.640;5.554;2023-12-20T04:57:43;45.25;;;12.27;;
59790;SDS011;47431;51.640;5.554;2023-12-20T05:00:08;48.22;;;11.73;;
59790;SDS011;47431;51.640;5.554;2023-12-20T05:02:35;52.45;;;12.95;;
59790;SDS011;47431;51.640;5.554;2023-12-20T05:05:01;40.83;;;12.15;;
59790;SDS011;47431;51.640;5.554;2023-12-20T05:07:26;49.15;;;11.98;;
59790;SDS011;47431;51.640;5.554;2023-12-20T05:09:51;48.83;;;10.45;;
59790;SDS011;47431;51.640;5.554;2023-12-20T05:12:17;42.78;;;9.75;;
59790;SDS011;47431;51.640;5.554;2023-12-20T05:14:44;32.90;;;10.27;;
59790;SDS011;47431;51.640;5.554;2023-12-20T05:17:09;47.00;;;11.70;;
59790;SDS011;47431;51.640;5.554;2023-12-20T05:19:35;59.42;;;12.40;;
59790;SDS011;47431;51.640;5.554;2023-12-20T05:22:01;48.10;;;10.23;;
59790;SDS011;47431;51.640;5.554;2023-12-20T05:24:27;51.60;;;11.57;;
59790;SDS011;47431;51.640;5.554;2023-12-20T05:26:53;45.30;;;10.95;;
59790;SDS011;47431;51.640;5.554;2023-12-20T05:29:18;59.22;;;12.15;;
59790;SDS011;47431;51.640;5.554;2023-12-20T05:31:43;50.60;;;13.10;;
59790;SDS011;47431;51.640;5.554;2023-12-20T05:34:09;53.80;;;10.95;;
59790;SDS011;47431;51.640;5.554;2023-12-20T05:36:34;46.17;;;11.48;;
59790;SDS011;47431;51.640;5.554;2023-12-20T05:39:01;47.30;;;12.57;;
59790;SDS011;47431;51.640;5.554;2023-12-20T05:41:26;52.47;;;10.00;;
59790;SDS011;47431;51.640;5.554;2023-12-20T05:43:51;52.28;;;10.93;;
59790;SDS011;47431;51.640;5.554;2023-12-20T05:46:17;43.75;;;9.18;;
59790;SDS011;47431;51.640;5.554;2023-12-20T05:48:42;45.22;;;10.93;;
59790;SDS011;47431;51.640;5.554;2023-12-20T05:51:07;45.95;;;10.18;;
59790;SDS011;47431;51.640;5.554;2023-12-20T05:53:36;33.90;;;9.68;;
59790;SDS011;47431;51.640;5.554;2023-12-20T05:56:02;39.92;;;12.30;;
59790;SDS011;47431;51.640;5.554;2023-12-20T05:58:27;29.13;;;8.73;;
59790;SDS011;47431;51.640;5.554;2023-12-20T06:00:54;45.65;;;9.73;;
59790;SDS011;47431;51.640;5.554;2023-12-20T06:03:19;32.33;;;8.45;;
59790;SDS011;47431;51.640;5.554;2023-12-20T06:05:44;43.95;;;10.05;;
59790;SDS011;47431;51.640;5.554;2023-12-20T06:08:10;44.60;;;9.23;;
59790;SDS011;47431;51.640;5.554;2023-12-20T06:10:35;44.67;;;12.27;;
59790;SDS011;47431;51.640;5.554;2023-12-20T06:13:00;35.78;;;9.00;;
59790;SDS011;47431;51.640;5.554;2023-12-20T06:15:26;45.47;;;11.02;;
59790;SDS011;47431;51.640;5.554;2023-12-20T06:17:51;45.03;;;10.55;;
59790;SDS011;47431;51.640;5.554;2023-12-20T06:20:17;40.53;;;8.57;;
59790;SDS011;47431;51.640;5.554;2023-12-20T06:22:42;33.15;;;9.50;;
59790;SDS011;47431;51.640;5.554;2023-12-20T06:25:07;40.78;;;10.95;;
59790;SDS011;47431;51.640;5.554;2023-12-20T06:27:33;31.45;;;7.55;;
59790;SDS011;47431;51.640;5.554;2023-12-20T06:29:59;44.22;;;9.40;;
59790;SDS011;47431;51.640;5.554;2023-12-20T06:32:24;49.13;;;11.18;;
59790;SDS011;47431;51.640;5.554;2023-12-20T06:34:50;43.13;;;11.65;;
59790;SDS011;47431;51.640;5.554;2023-12-20T06:37:15;33.08;;;10.00;;
59790;SDS011;47431;51.640;5.554;2023-12-20T06:39:40;41.90;;;11.82;;
59790;SDS011;47431;51.640;5.554;2023-12-20T06:42:06;39.63;;;9.93;;
59790;SDS011;47431;51.640;5.554;2023-12-20T06:44:31;32.17;;;8.50;;
59790;SDS011;47431;51.640;5.554;2023-12-20T06:46:57;33.60;;;9.98;;
59790;SDS011;47431;51.640;5.554;2023-12-20T06:49:22;43.67;;;10.80;;
59790;SDS011;47431;51.640;5.554;2023-12-20T06:51:48;42.33;;;9.88;;
59790;SDS011;47431;51.640;5.554;2023-12-20T06:54:13;38.47;;;9.85;;
59790;SDS011;47431;51.640;5.554;2023-12-20T06:56:39;34.97;;;9.65;;
59790;SDS011;47431;51.640;5.554;2023-12-20T06:59:04;30.08;;;9.15;;
59790;SDS011;47431;51.640;5.554;2023-12-20T07:01:29;42.20;;;10.38;;
59790;SDS011;47431;51.640;5.554;2023-12-20T07:03:55;49.30;;;11.05;;
59790;SDS011;47431;51.640;5.554;2023-12-20T07:06:20;33.08;;;9.80;;
59790;SDS011;47431;51.640;5.554;2023-12-20T07:08:45;31.10;;;9.30;;
59790;SDS011;47431;51.640;5.554;2023-12-20T07:11:11;41.58;;;9.65;;
59790;SDS011;47431;51.640;5.554;2023-12-20T07:13:37;41.63;;;9.70;;
59790;SDS011;47431;51.640;5.554;2023-12-20T07:16:02;36.70;;;9.55;;
59790;SDS011;47431;51.640;5.554;2023-12-20T07:18:28;28.30;;;8.20;;
59790;SDS011;47431;51.640;5.554;2023-12-20T07:20:54;38.67;;;9.52;;
59790;SDS011;47431;51.640;5.554;2023-12-20T07:23:20;39.17;;;8.77;;
59790;SDS011;47431;51.640;5.554;2023-12-20T07:25:46;44.20;;;9.85;;
59790;SDS011;47431;51.640;5.554;2023-12-20T07:28:11;35.30;;;8.63;;
59790;SDS011;47431;51.640;5.554;2023-12-20T07:30:37;37.05;;;10.38;;
59790;SDS011;47431;51.640;5.554;2023-12-20T07:33:02;32.60;;;9.00;;
59790;SDS011;47431;51.640;5.554;2023-12-20T07:35:28;32.25;;;9.95;;
59790;SDS011;47431;51.640;5.554;2023-12-20T07:37:56;39.92;;;10.02;;
59790;SDS011;47431;51.640;5.554;2023-12-20T07:40:22;39.30;;;10.15;;
59790;SDS011;47431;51.640;5.554;2023-12-20T07:42:48;29.67;;;11.60;;
59790;SDS011;47431;51.640;5.554;2023-12-20T07:45:14;31.67;;;11.15;;
59790;SDS011;47431;51.640;5.554;2023-12-20T07:47:40;41.85;;;12.40;;
59790;SDS011;47431;51.640;5.554;2023-12-20T07:50:06;28.58;;;10.00;;
59790;SDS011;47431;51.640;5.554;2023-12-20T07:52:31;35.40;;;11.65;;
59790;SDS011;47431;51.640;5.554;2023-12-20T07:54:57;34.20;;;10.73;;
59790;SDS011;47431;51.640;5.554;2023-12-20T07:57:23;36.38;;;11.55;;
59790;SDS011;47431;51.640;5.554;2023-12-20T07:59:48;38.45;;;11.95;;
59790;SDS011;47431;51.640;5.554;2023-12-20T08:02:14;35.10;;;10.80;;
59790;SDS011;47431;51.640;5.554;2023-12-20T08:04:39;39.72;;;11.05;;
59790;SDS011;47431;51.640;5.554;2023-12-20T08:07:06;34.10;;;10.63;;
59790;SDS011;47431;51.640;5.554;2023-12-20T08:09:31;35.40;;;11.88;;
59790;SDS011;47431;51.640;5.554;2023-12-20T08:11:58;39.13;;;11.20;;
59790;SDS011;47431;51.640;5.554;2023-12-20T08:14:24;36.22;;;11.30;;
59790;SDS011;47431;51.640;5.554;2023-12-20T08:16:50;53.13;;;11.68;;
59790;SDS011;47431;51.640;5.554;2023-12-20T08:19:16;33.40;;;11.63;;
59790;SDS011;47431;51.640;5.554;2023-12-20T08:21:42;33.67;;;10.60;;
59790;SDS011;47431;51.640;5.554;2023-12-20T08:24:07;31.42;;;10.45;;
59790;SDS011;47431;51.640;5.554;2023-12-20T08:26:33;33.80;;;10.18;;
59790;SDS011;47431;51.640;5.554;2023-12-20T08:28:59;39.65;;;10.07;;
59790;SDS011;47431;51.640;5.554;2023-12-20T08:31:24;30.35;;;10.07;;
59790;SDS011;47431;51.640;5.554;2023-12-20T08:33:50;29.63;;;9.23;;
59790;SDS011;47431;51.640;5.554;2023-12-20T08:36:15;46.95;;;10.98;;
59790;SDS011;47431;51.640;5.554;2023-12-20T08:38:42;33.67;;;11.50;;
59790;SDS011;47431;51.640;5.554;2023-12-20T08:41:08;33.30;;;8.75;;
59790;SDS011;47431;51.640;5.554;2023-12-20T08:43:34;50.13;;;11.63;;
59790;SDS011;47431;51.640;5.554;2023-12-20T08:46:00;40.75;;;9.52;;
59790;SDS011;47431;51.640;5.554;2023-12-20T08:48:26;42.70;;;11.60;;
59790;SDS011;47431;51.640;5.554;2023-12-20T08:50:51;34.33;;;10.07;;
59790;SDS011;47431;51.640;5.554;2023-12-20T08:53:17;39.00;;;9.93;;
59790;SDS011;47431;51.640;5.554;2023-12-20T08:55:46;32.53;;;10.18;;
59790;SDS011;47431;51.640;5.554;2023-12-20T08:58:11;39.58;;;10.95;;
59790;SDS011;47431;51.640;5.554;2023-12-20T09:00:37;32.72;;;8.50;;
59790;SDS011;47431;51.640;5.554;2023-12-20T09:03:03;43.83;;;9.88;;
59790;SDS011;47431;51.640;5.554;2023-12-20T09:05:29;33.45;;;10.43;;
59790;SDS011;47431;51.640;5.554;2023-12-20T09:07:55;32.88;;;9.90;;
59790;SDS011;47431;51.640;5.554;2023-12-20T09:10:20;38.80;;;11.15;;
59790;SDS011;47431;51.640;5.554;2023-12-20T09:12:53;44.45;;;10.95;;
59790;SDS011;47431;51.640;5.554;2023-12-20T09:15:25;29.48;;;8.45;;
59790;SDS011;47431;51.640;5.554;2023-12-20T09:17:52;27.92;;;9.40;;
59790;SDS011;47431;51.640;5.554;2023-12-20T09:20:18;30.02;;;9.02;;
59790;SDS011;47431;51.640;5.554;2023-12-20T09:22:43;28.73;;;9.77;;
59790;SDS011;47431;51.640;5.554;2023-12-20T09:25:09;38.33;;;10.35;;
59790;SDS011;47431;51.640;5.554;2023-12-20T09:27:35;35.50;;;9.30;;
59790;SDS011;47431;51.640;5.554;2023-12-20T09:30:00;39.33;;;9.45;;
59790;SDS011;47431;51.640;5.554;2023-12-20T09:32:26;28.90;;;7.43;;
59790;SDS011;47431;51.640;5.554;2023-12-20T09:34:51;32.40;;;9.07;;
59790;SDS011;47431;51.640;5.554;2023-12-20T09:37:16;28.70;;;7.43;;
59790;SDS011;47431;51.640;5.554;2023-12-20T09:39:42;42.33;;;10.57;;
59790;SDS011;47431;51.640;5.554;2023-12-20T09:42:07;38.67;;;10.70;;
59790;SDS011;47431;51.640;5.554;2023-12-20T09:44:34;30.00;;;10.82;;
59790;SDS011;47431;51.640;5.554;2023-12-20T09:47:01;23.50;;;7.68;;
59790;SDS011;47431;51.640;5.554;2023-12-20T09:49:28;26.60;;;8.05;;
59790;SDS011;47431;51.640;5.554;2023-12-20T09:51:55;32.80;;;9.75;;
59790;SDS011;47431;51.640;5.554;2023-12-20T09:54:21;40.90;;;9.85;;
59790;SDS011;47431;51.640;5.554;2023-12-20T09:56:48;41.65;;;11.65;;
59790;SDS011;47431;51.640;5.554;2023-12-20T09:59:13;33.78;;;10.63;;
59790;SDS011;47431;51.640;5.554;2023-12-20T10:01:40;26.15;;;7.95;;
59790;SDS011;47431;51.640;5.554;2023-12-20T10:04:07;24.08;;;8.38;;
59790;SDS011;47431;51.640;5.554;2023-12-20T10:06:35;31.48;;;7.72;;
59790;SDS011;47431;51.640;5.554;2023-12-20T10:09:01;49.75;;;10.27;;
59790;SDS011;47431;51.640;5.554;2023-12-20T10:11:27;28.55;;;9.70;;
59790;SDS011;47431;51.640;5.554;2023-12-20T10:13:58;27.35;;;9.35;;
59790;SDS011;47431;51.640;5.554;2023-12-20T10:16:26;59.00;;;9.43;;
59790;SDS011;47431;51.640;5.554;2023-12-20T10:18:52;27.85;;;8.60;;
59790;SDS011;47431;51.640;5.554;2023-12-20T10:21:18;30.90;;;8.30;;
59790;SDS011;47431;51.640;5.554;2023-12-20T10:23:44;30.73;;;9.32;;
59790;SDS011;47431;51.640;5.554;2023-12-20T10:26:10;34.80;;;8.38;;
59790;SDS011;47431;51.640;5.554;2023-12-20T10:28:44;37.70;;;8.70;;
59790;SDS011;47431;51.640;5.554;2023-12-20T10:31:10;29.90;;;10.00;;
59790;SDS011;47431;51.640;5.554;2023-12-20T10:33:36;27.38;;;8.50;;
59790;SDS011;47431;51.640;5.554;2023-12-20T10:36:01;29.95;;;8.43;;
59790;SDS011;47431;51.640;5.554;2023-12-20T10:38:27;37.40;;;8.07;;
59790;SDS011;47431;51.640;5.554;2023-12-20T10:40:56;34.45;;;10.52;;
59790;SDS011;47431;51.640;5.554;2023-12-20T10:43:24;34.20;;;8.90;;
59790;SDS011;47431;51.640;5.554;2023-12-20T10:45:51;38.28;;;8.32;;
59790;SDS011;47431;51.640;5.554;2023-12-20T10:48:17;40.88;;;9.10;;
59790;SDS011;47431;51.640;5.554;2023-12-20T10:50:43;27.85;;;6.65;;
59790;SDS011;47431;51.640;5.554;2023-12-20T10:53:10;41.95;;;8.48;;
59790;SDS011;47431;51.640;5.554;2023-12-20T10:55:37;31.85;;;8.23;;
59790;SDS011;47431;51.640;5.554;2023-12-20T10:58:09;35.88;;;7.90;;
59790;SDS011;47431;51.640;5.554;2023-12-20T11:00:39;33.90;;;7.55;;
59790;SDS011;47431;51.640;5.554;2023-12-20T11:03:08;30.80;;;7.90;;
59790;SDS011;47431;51.640;5.554;2023-12-20T11:08:12;42.25;;;8.65;;
59790;SDS011;47431;51.640;5.554;2023-12-20T11:13:34;31.88;;;7.47;;
59790;SDS011;47431;51.640;5.554;2023-12-20T11:16:05;32.97;;;8.52;;
59790;SDS011;47431;51.640;5.554;2023-12-20T11:18:32;22.17;;;6.40;;
59790;SDS011;47431;51.640;5.554;2023-12-20T11:21:01;25.30;;;7.10;;
59790;SDS011;47431;51.640;5.554;2023-12-20T11:23:29;23.50;;;6.97;;
59790;SDS011;47431;51.640;5.554;2023-12-20T11:25:56;35.95;;;7.45;;
59790;SDS011;47431;51.640;5.554;2023-12-20T11:28:25;30.73;;;7.35;;
59790;SDS011;47431;51.640;5.554;2023-12-20T11:30:55;27.90;;;7.28;;
59790;SDS011;47431;51.640;5.554;2023-12-20T11:33:22;32.65;;;7.75;;
59790;SDS011;47431;51.640;5.554;2023-12-20T11:35:48;30.25;;;8.25;;
59790;SDS011;47431;51.640;5.554;2023-12-20T11:38:14;34.80;;;7.38;;
59790;SDS011;47431;51.640;5.554;2023-12-20T11:40:41;23.98;;;6.25;;
59790;SDS011;47431;51.640;5.554;2023-12-20T11:43:07;28.92;;;6.78;;
59790;SDS011;47431;51.640;5.554;2023-12-20T11:45:32;17.83;;;4.75;;
59790;SDS011;47431;51.640;5.554;2023-12-20T11:47:59;29.20;;;7.22;;
59790;SDS011;47431;51.640;5.554;2023-12-20T11:50:27;29.55;;;8.32;;
59790;SDS011;47431;51.640;5.554;2023-12-20T11:52:54;28.20;;;7.07;;
59790;SDS011;47431;51.640;5.554;2023-12-20T11:55:24;38.28;;;7.13;;
59790;SDS011;47431;51.640;5.554;2023-12-20T11:57:50;32.75;;;8.07;;
59790;SDS011;47431;51.640;5.554;2023-12-20T12:00:16;34.55;;;7.25;;
59790;SDS011;47431;51.640;5.554;2023-12-20T12:02:42;32.08;;;6.75;;
59790;SDS011;47431;51.640;5.554;2023-12-20T12:05:08;41.30;;;8.38;;
59790;SDS011;47431;51.640;5.554;2023-12-20T12:07:34;38.28;;;7.97;;
59790;SDS011;47431;51.640;5.554;2023-12-20T12:10:00;32.40;;;7.15;;
59790;SDS011;47431;51.640;5.554;2023-12-20T12:12:25;33.60;;;7.07;;
59790;SDS011;47431;51.640;5.554;2023-12-20T12:14:52;35.78;;;7.05;;
59790;SDS011;47431;51.640;5.554;2023-12-20T12:17:18;32.20;;;7.72;;
59790;SDS011;47431;51.640;5.554;2023-12-20T12:19:43;24.83;;;7.78;;
59790;SDS011;47431;51.640;5.554;2023-12-20T12:22:10;31.83;;;7.57;;
59790;SDS011;47431;51.640;5.554;2023-12-20T12:24:40;27.67;;;6.57;;
59790;SDS011;47431;51.640;5.554;2023-12-20T12:27:07;26.73;;;7.47;;
59790;SDS011;47431;51.640;5.554;2023-12-20T12:29:33;33.40;;;7.95;;
59790;SDS011;47431;51.640;5.554;2023-12-20T12:31:59;33.75;;;8.30;;
59790;SDS011;47431;51.640;5.554;2023-12-20T12:34:28;29.20;;;7.32;;
59790;SDS011;47431;51.640;5.554;2023-12-20T12:36:54;41.95;;;9.07;;
59790;SDS011;47431;51.640;5.554;2023-12-20T12:39:19;37.15;;;7.30;;
59790;SDS011;47431;51.640;5.554;2023-12-20T12:41:44;39.05;;;8.93;;
59790;SDS011;47431;51.640;5.554;2023-12-20T12:44:10;28.70;;;7.28;;
59790;SDS011;47431;51.640;5.554;2023-12-20T12:46:35;33.00;;;8.60;;
59790;SDS011;47431;51.640;5.554;2023-12-20T12:49:01;29.85;;;7.18;;
59790;SDS011;47431;51.640;5.554;2023-12-20T12:51:26;19.10;;;5.70;;
59790;SDS011;47431;51.640;5.554;2023-12-20T12:53:51;34.75;;;6.88;;
59790;SDS011;47431;51.640;5.554;2023-12-20T12:56:18;24.88;;;6.85;;
59790;SDS011;47431;51.640;5.554;2023-12-20T12:58:44;23.05;;;7.38;;
59790;SDS011;47431;51.640;5.554;2023-12-20T13:01:10;41.72;;;8.88;;
59790;SDS011;47431;51.640;5.554;2023-12-20T13:03:35;38.08;;;7.05;;
59790;SDS011;47431;51.640;5.554;2023-12-20T13:06:01;29.40;;;6.03;;
59790;SDS011;47431;51.640;5.554;2023-12-20T13:08:27;33.83;;;7.03;;
59790;SDS011;47431;51.640;5.554;2023-12-20T13:10:53;29.90;;;7.88;;
59790;SDS011;47431;51.640;5.554;2023-12-20T13:13:19;29.65;;;7.72;;
59790;SDS011;47431;51.640;5.554;2023-12-20T13:15:44;31.83;;;7.13;;
59790;SDS011;47431;51.640;5.554;2023-12-20T13:18:15;35.72;;;6.75;;
59790;SDS011;47431;51.640;5.554;2023-12-20T13:20:41;39.50;;;7.25;;
59790;SDS011;47431;51.640;5.554;2023-12-20T13:23:06;29.75;;;7.70;;
59790;SDS011;47431;51.640;5.554;2023-12-20T13:25:31;25.65;;;6.93;;
59790;SDS011;47431;51.640;5.554;2023-12-20T13:27:58;37.10;;;7.60;;
59790;SDS011;47431;51.640;5.554;2023-12-20T13:30:24;25.67;;;6.75;;
59790;SDS011;47431;51.640;5.554;2023-12-20T13:32:49;30.45;;;8.32;;
59790;SDS011;47431;51.640;5.554;2023-12-20T13:35:15;26.30;;;6.18;;
59790;SDS011;47431;51.640;5.554;2023-12-20T13:37:40;28.02;;;8.75;;
59790;SDS011;47431;51.640;5.554;2023-12-20T13:40:06;28.77;;;7.90;;
59790;SDS011;47431;51.640;5.554;2023-12-20T13:42:32;29.05;;;7.28;;
59790;SDS011;47431;51.640;5.554;2023-12-20T13:44:57;30.60;;;8.05;;
59790;SDS011;47431;51.640;5.554;2023-12-20T13:47:22;30.50;;;8.45;;
59790;SDS011;47431;51.640;5.554;2023-12-20T13:49:48;28.60;;;7.47;;
59790;SDS011;47431;51.640;5.554;2023-12-20T13:52:13;30.02;;;7.70;;
59790;SDS011;47431;51.640;5.554;2023-12-20T13:54:38;38.55;;;9.55;;
59790;SDS011;47431;51.640;5.554;2023-12-20T13:57:04;35.08;;;8.50;;
59790;SDS011;47431;51.640;5.554;2023-12-20T13:59:29;34.17;;;8.45;;
59790;SDS011;47431;51.640;5.554;2023-12-20T14:01:55;33.55;;;8.55;;
59790;SDS011;47431;51.640;5.554;2023-12-20T14:04:22;27.17;;;7.32;;
59790;SDS011;47431;51.640;5.554;2023-12-20T14:06:47;40.97;;;9.35;;
59790;SDS011;47431;51.640;5.554;2023-12-20T14:09:12;29.80;;;8.38;;
59790;SDS011;47431;51.640;5.554;2023-12-20T14:11:38;31.92;;;6.97;;
59790;SDS011;47431;51.640;5.554;2023-12-20T14:14:06;30.08;;;8.00;;
59790;SDS011;47431;51.640;5.554;2023-12-20T14:16:32;30.30;;;7.55;;
59790;SDS011;47431;51.640;5.554;2023-12-20T14:18:58;24.75;;;8.07;;
59790;SDS011;47431;51.640;5.554;2023-12-20T14:21:24;30.02;;;7.97;;
59790;SDS011;47431;51.640;5.554;2023-12-20T14:23:49;33.80;;;7.90;;
59790;SDS011;47431;51.640;5.554;2023-12-20T14:26:14;38.17;;;8.43;;